sensor_id;sensor_type;location;lat;lon;timestamp;P1;durP1;ratioP1;P2;durP2;ratioP2
15708;SDS011;7954;51.914;8.420;2023-11-21T00:01:35;9.13;;;7.60;;
15708;SDS011;7954;51.914;8.420;2023-11-21T00:04:04;8.13;;;7.43;;
15708;SDS011;7954;51.914;8.420;2023-11-21T00:06:35;7.77;;;7.07;;
15708;SDS011;7954;51.914;8.420;2023-11-21T00:09:04;8.13;;;7.07;;
15708;SDS011;7954;51.914;8.420;2023-11-21T00:11:35;8.07;;;7.33;;
15708;SDS011;7954;51.914;8.420;2023-11-21T00:14:05;7.37;;;6.67;;
15708;SDS011;7954;51.914;8.420;2023-11-21T00:16:38;7.90;;;7.13;;
15708;SDS011;7954;51.914;8.420;2023-11-21T00:19:06;7.63;;;6.87;;
15708;SDS011;7954;51.914;8.420;2023-11-21T00:21:36;7.47;;;6.77;;
15708;SDS011;7954;51.914;8.420;2023-11-21T00:24:04;8.60;;;7.80;;
15708;SDS011;7954;51.914;8.420;2023-11-21T00:26:33;7.10;;;6.50;;
15708;SDS011;7954;51.914;8.420;2023-11-21T00:29:03;7.13;;;6.43;;
15708;SDS011;7954;51.914;8.420;2023-11-21T00:31:34;9.13;;;6.33;;
15708;SDS011;7954;51.914;8.420;2023-11-21T00:34:06;8.53;;;7.73;;
15708;SDS011;7954;51.914;8.420;2023-11-21T00:36:34;8.20;;;6.53;;
15708;SDS011;7954;51.914;8.420;2023-11-21T00:39:02;6.73;;;6.13;;
15708;SDS011;7954;51.914;8.420;2023-11-21T00:41:32;7.07;;;6.03;;
15708;SDS011;7954;51.914;8.420;2023-11-21T00:44:01;7.37;;;6.77;;
15708;SDS011;7954;51.914;8.420;2023-11-21T00:46:29;8.50;;;7.20;;
15708;SDS011;7954;51.914;8.420;2023-11-21T00:48:59;7.80;;;7.00;;
15708;SDS011;7954;51.914;8.420;2023-11-21T00:51:29;7.80;;;7.03;;
15708;SDS011;7954;51.914;8.420;2023-11-21T00:54:00;8.03;;;7.33;;
15708;SDS011;7954;51.914;8.420;2023-11-21T00:56:31;7.93;;;7.00;;
15708;SDS011;7954;51.914;8.420;2023-11-21T00:59:00;7.97;;;7.17;;
15708;SDS011;7954;51.914;8.420;2023-11-21T01:01:31;7.93;;;7.20;;
15708;SDS011;7954;51.914;8.420;2023-11-21T01:04:00;7.90;;;7.10;;
15708;SDS011;7954;51.914;8.420;2023-11-21T01:06:31;9.70;;;7.67;;
15708;SDS011;7954;51.914;8.420;2023-11-21T01:09:00;7.47;;;6.17;;
15708;SDS011;7954;51.914;8.420;2023-11-21T01:11:34;7.83;;;6.90;;
15708;SDS011;7954;51.914;8.420;2023-11-21T01:14:04;8.03;;;6.90;;
15708;SDS011;7954;51.914;8.420;2023-11-21T01:16:33;7.57;;;6.60;;
15708;SDS011;7954;51.914;8.420;2023-11-21T01:19:04;6.80;;;6.20;;
15708;SDS011;7954;51.914;8.420;2023-11-21T01:21:34;7.00;;;6.40;;
15708;SDS011;7954;51.914;8.420;2023-11-21T01:24:06;7.33;;;6.53;;
15708;SDS011;7954;51.914;8.420;2023-11-21T01:26:35;7.57;;;6.60;;
15708;SDS011;7954;51.914;8.420;2023-11-21T01:29:03;6.87;;;6.03;;
15708;SDS011;7954;51.914;8.420;2023-11-21T01:31:31;7.30;;;6.60;;
15708;SDS011;7954;51.914;8.420;2023-11-21T01:34:00;7.57;;;6.70;;
15708;SDS011;7954;51.914;8.420;2023-11-21T01:36:31;6.30;;;5.80;;
15708;SDS011;7954;51.914;8.420;2023-11-21T01:39:03;8.20;;;7.40;;
15708;SDS011;7954;51.914;8.420;2023-11-21T01:41:36;9.90;;;7.03;;
15708;SDS011;7954;51.914;8.420;2023-11-21T01:44:05;7.23;;;6.57;;
15708;SDS011;7954;51.914;8.420;2023-11-21T01:46:36;6.83;;;6.13;;
15708;SDS011;7954;51.914;8.420;2023-11-21T01:49:06;7.20;;;6.60;;
15708;SDS011;7954;51.914;8.420;2023-11-21T01:51:36;7.30;;;6.70;;
15708;SDS011;7954;51.914;8.420;2023-11-21T01:54:07;6.70;;;6.10;;
15708;SDS011;7954;51.914;8.420;2023-11-21T01:56:43;8.03;;;7.30;;
15708;SDS011;7954;51.914;8.420;2023-11-21T01:59:14;7.77;;;6.90;;
15708;SDS011;7954;51.914;8.420;2023-11-21T02:01:45;8.47;;;6.90;;
15708;SDS011;7954;51.914;8.420;2023-11-21T02:04:20;7.13;;;6.53;;
15708;SDS011;7954;51.914;8.420;2023-11-21T02:06:49;7.23;;;6.53;;
15708;SDS011;7954;51.914;8.420;2023-11-21T02:09:24;7.23;;;6.50;;
15708;SDS011;7954;51.914;8.420;2023-11-21T02:11:54;7.20;;;6.50;;
15708;SDS011;7954;51.914;8.420;2023-11-21T02:14:24;6.43;;;5.87;;
15708;SDS011;7954;51.914;8.420;2023-11-21T02:16:54;7.67;;;6.87;;
15708;SDS011;7954;51.914;8.420;2023-11-21T02:19:24;7.53;;;6.83;;
15708;SDS011;7954;51.914;8.420;2023-11-21T02:21:57;7.13;;;6.53;;
15708;SDS011;7954;51.914;8.420;2023-11-21T02:24:29;7.63;;;6.83;;
15708;SDS011;7954;51.914;8.420;2023-11-21T02:26:58;8.93;;;7.30;;
15708;SDS011;7954;51.914;8.420;2023-11-21T02:29:27;7.30;;;6.60;;
15708;SDS011;7954;51.914;8.420;2023-11-21T02:31:56;7.40;;;6.50;;
15708;SDS011;7954;51.914;8.420;2023-11-21T02:34:25;7.03;;;6.33;;
15708;SDS011;7954;51.914;8.420;2023-11-21T02:36:53;7.80;;;7.13;;
15708;SDS011;7954;51.914;8.420;2023-11-21T02:39:22;7.67;;;6.73;;
15708;SDS011;7954;51.914;8.420;2023-11-21T02:41:54;7.47;;;6.77;;
15708;SDS011;7954;51.914;8.420;2023-11-21T02:44:23;7.60;;;6.97;;
15708;SDS011;7954;51.914;8.420;2023-11-21T02:46:51;8.00;;;6.80;;
15708;SDS011;7954;51.914;8.420;2023-11-21T02:49:21;7.73;;;6.80;;
15708;SDS011;7954;51.914;8.420;2023-11-21T02:51:54;7.47;;;6.53;;
15708;SDS011;7954;51.914;8.420;2023-11-21T02:54:23;7.73;;;7.03;;
15708;SDS011;7954;51.914;8.420;2023-11-21T02:56:51;7.40;;;6.70;;
15708;SDS011;7954;51.914;8.420;2023-11-21T02:59:20;7.17;;;6.13;;
15708;SDS011;7954;51.914;8.420;2023-11-21T03:01:49;7.30;;;6.60;;
15708;SDS011;7954;51.914;8.420;2023-11-21T03:04:17;8.30;;;7.50;;
15708;SDS011;7954;51.914;8.420;2023-11-21T03:06:47;8.20;;;7.40;;
15708;SDS011;7954;51.914;8.420;2023-11-21T03:09:15;7.43;;;6.73;;
15708;SDS011;7954;51.914;8.420;2023-11-21T03:11:43;9.37;;;6.93;;
15708;SDS011;7954;51.914;8.420;2023-11-21T03:14:11;8.47;;;7.43;;
15708;SDS011;7954;51.914;8.420;2023-11-21T03:16:40;8.47;;;7.67;;
15708;SDS011;7954;51.914;8.420;2023-11-21T03:19:08;8.57;;;7.77;;
15708;SDS011;7954;51.914;8.420;2023-11-21T03:21:36;10.00;;;8.20;;
15708;SDS011;7954;51.914;8.420;2023-11-21T03:24:08;11.87;;;8.37;;
15708;SDS011;7954;51.914;8.420;2023-11-21T03:26:36;9.93;;;8.17;;
15708;SDS011;7954;51.914;8.420;2023-11-21T03:29:05;9.57;;;8.03;;
15708;SDS011;7954;51.914;8.420;2023-11-21T03:31:33;10.17;;;7.97;;
15708;SDS011;7954;51.914;8.420;2023-11-21T03:34:02;9.27;;;8.27;;
15708;SDS011;7954;51.914;8.420;2023-11-21T03:36:30;9.87;;;8.40;;
15708;SDS011;7954;51.914;8.420;2023-11-21T03:38:59;10.77;;;8.93;;
15708;SDS011;7954;51.914;8.420;2023-11-21T03:41:26;10.40;;;9.40;;
15708;SDS011;7954;51.914;8.420;2023-11-21T03:43:54;11.13;;;8.93;;
15708;SDS011;7954;51.914;8.420;2023-11-21T03:46:22;11.60;;;9.37;;
15708;SDS011;7954;51.914;8.420;2023-11-21T03:48:50;11.03;;;9.73;;
15708;SDS011;7954;51.914;8.420;2023-11-21T03:51:20;10.23;;;9.33;;
15708;SDS011;7954;51.914;8.420;2023-11-21T03:53:48;10.57;;;9.50;;
15708;SDS011;7954;51.914;8.420;2023-11-21T03:56:16;9.97;;;8.97;;
15708;SDS011;7954;51.914;8.420;2023-11-21T03:58:44;9.17;;;8.33;;
15708;SDS011;7954;51.914;8.420;2023-11-21T04:01:15;10.80;;;9.67;;
15708;SDS011;7954;51.914;8.420;2023-11-21T04:03:47;11.20;;;9.83;;
15708;SDS011;7954;51.914;8.420;2023-11-21T04:06:15;9.67;;;8.77;;
15708;SDS011;7954;51.914;8.420;2023-11-21T04:08:45;11.97;;;10.07;;
15708;SDS011;7954;51.914;8.420;2023-11-21T04:11:13;10.83;;;9.83;;
15708;SDS011;7954;51.914;8.420;2023-11-21T04:13:42;11.63;;;9.73;;
15708;SDS011;7954;51.914;8.420;2023-11-21T04:16:09;10.63;;;9.53;;
15708;SDS011;7954;51.914;8.420;2023-11-21T04:18:37;10.43;;;9.43;;
15708;SDS011;7954;51.914;8.420;2023-11-21T04:21:06;10.40;;;9.40;;
15708;SDS011;7954;51.914;8.420;2023-11-21T04:23:34;10.83;;;9.83;;
15708;SDS011;7954;51.914;8.420;2023-11-21T04:26:04;10.87;;;9.77;;
15708;SDS011;7954;51.914;8.420;2023-11-21T04:28:33;11.33;;;10.23;;
15708;SDS011;7954;51.914;8.420;2023-11-21T04:31:01;10.03;;;9.03;;
15708;SDS011;7954;51.914;8.420;2023-11-21T04:33:29;11.10;;;9.77;;
15708;SDS011;7954;51.914;8.420;2023-11-21T04:35:58;9.33;;;8.30;;
15708;SDS011;7954;51.914;8.420;2023-11-21T04:38:26;12.57;;;10.33;;
15708;SDS011;7954;51.914;8.420;2023-11-21T04:40:53;13.73;;;11.13;;
15708;SDS011;7954;51.914;8.420;2023-11-21T04:43:23;12.00;;;10.80;;
15708;SDS011;7954;51.914;8.420;2023-11-21T04:45:51;12.00;;;10.90;;
15708;SDS011;7954;51.914;8.420;2023-11-21T04:48:19;12.47;;;10.70;;
15708;SDS011;7954;51.914;8.420;2023-11-21T04:50:47;12.17;;;11.07;;
15708;SDS011;7954;51.914;8.420;2023-11-21T04:53:14;10.33;;;9.33;;
15708;SDS011;7954;51.914;8.420;2023-11-21T04:55:42;12.53;;;11.23;;
15708;SDS011;7954;51.914;8.420;2023-11-21T04:58:10;14.00;;;12.50;;
15708;SDS011;7954;51.914;8.420;2023-11-21T05:00:40;13.33;;;11.93;;
15708;SDS011;7954;51.914;8.420;2023-11-21T05:03:09;17.30;;;13.23;;
15708;SDS011;7954;51.914;8.420;2023-11-21T05:05:38;16.57;;;13.37;;
15708;SDS011;7954;51.914;8.420;2023-11-21T05:08:06;13.33;;;12.03;;
15708;SDS011;7954;51.914;8.420;2023-11-21T05:10:35;13.30;;;11.93;;
15708;SDS011;7954;51.914;8.420;2023-11-21T05:13:04;15.20;;;13.67;;
15708;SDS011;7954;51.914;8.420;2023-11-21T05:15:36;13.83;;;12.53;;
15708;SDS011;7954;51.914;8.420;2023-11-21T05:18:05;13.80;;;12.47;;
15708;SDS011;7954;51.914;8.420;2023-11-21T05:20:33;12.77;;;11.63;;
15708;SDS011;7954;51.914;8.420;2023-11-21T05:23:02;12.53;;;11.43;;
15708;SDS011;7954;51.914;8.420;2023-11-21T05:25:29;14.40;;;11.07;;
15708;SDS011;7954;51.914;8.420;2023-11-21T05:27:58;12.20;;;11.10;;
15708;SDS011;7954;51.914;8.420;2023-11-21T05:30:27;11.23;;;10.13;;
15708;SDS011;7954;51.914;8.420;2023-11-21T05:32:55;11.87;;;10.77;;
15708;SDS011;7954;51.914;8.420;2023-11-21T05:35:24;12.53;;;11.30;;
15708;SDS011;7954;51.914;8.420;2023-11-21T05:37:53;11.50;;;10.30;;
15708;SDS011;7954;51.914;8.420;2023-11-21T05:40:20;11.90;;;10.80;;
15708;SDS011;7954;51.914;8.420;2023-11-21T05:42:49;10.83;;;9.73;;
15708;SDS011;7954;51.914;8.420;2023-11-21T05:45:17;12.73;;;11.40;;
15708;SDS011;7954;51.914;8.420;2023-11-21T05:47:45;11.87;;;10.60;;
15708;SDS011;7954;51.914;8.420;2023-11-21T05:50:14;13.33;;;11.97;;
15708;SDS011;7954;51.914;8.420;2023-11-21T05:52:44;13.53;;;11.63;;
15708;SDS011;7954;51.914;8.420;2023-11-21T05:55:12;11.83;;;10.70;;
15708;SDS011;7954;51.914;8.420;2023-11-21T05:57:41;12.97;;;11.67;;
15708;SDS011;7954;51.914;8.420;2023-11-21T06:00:10;13.23;;;11.87;;
15708;SDS011;7954;51.914;8.420;2023-11-21T06:03:02;12.77;;;11.47;;
15708;SDS011;7954;51.914;8.420;2023-11-21T06:05:32;11.63;;;10.60;;
15708;SDS011;7954;51.914;8.420;2023-11-21T06:08:02;10.87;;;9.87;;
15708;SDS011;7954;51.914;8.420;2023-11-21T06:10:30;11.23;;;10.13;;
15708;SDS011;7954;51.914;8.420;2023-11-21T06:12:58;11.20;;;9.97;;
15708;SDS011;7954;51.914;8.420;2023-11-21T06:15:29;12.30;;;11.00;;
15708;SDS011;7954;51.914;8.420;2023-11-21T06:17:57;10.73;;;9.80;;
15708;SDS011;7954;51.914;8.420;2023-11-21T06:20:26;11.37;;;10.17;;
15708;SDS011;7954;51.914;8.420;2023-11-21T06:22:54;11.13;;;9.90;;
15708;SDS011;7954;51.914;8.420;2023-11-21T06:25:23;10.70;;;9.33;;
15708;SDS011;7954;51.914;8.420;2023-11-21T06:27:51;11.87;;;9.80;;
15708;SDS011;7954;51.914;8.420;2023-11-21T06:30:20;11.13;;;9.90;;
15708;SDS011;7954;51.914;8.420;2023-11-21T06:32:50;10.50;;;9.40;;
15708;SDS011;7954;51.914;8.420;2023-11-21T06:35:20;11.20;;;9.97;;
15708;SDS011;7954;51.914;8.420;2023-11-21T06:37:47;14.43;;;11.93;;
15708;SDS011;7954;51.914;8.420;2023-11-21T06:40:16;11.30;;;10.00;;
15708;SDS011;7954;51.914;8.420;2023-11-21T06:42:46;15.20;;;12.40;;
15708;SDS011;7954;51.914;8.420;2023-11-21T06:45:14;15.20;;;12.53;;
15708;SDS011;7954;51.914;8.420;2023-11-21T06:47:43;15.50;;;11.50;;
15708;SDS011;7954;51.914;8.420;2023-11-21T06:50:11;13.30;;;11.70;;
15708;SDS011;7954;51.914;8.420;2023-11-21T06:52:39;13.30;;;11.90;;
15708;SDS011;7954;51.914;8.420;2023-11-21T06:55:07;17.30;;;13.53;;
15708;SDS011;7954;51.914;8.420;2023-11-21T06:57:36;14.40;;;13.00;;
15708;SDS011;7954;51.914;8.420;2023-11-21T07:00:07;14.60;;;12.70;;
15708;SDS011;7954;51.914;8.420;2023-11-21T07:02:36;14.43;;;12.90;;
15708;SDS011;7954;51.914;8.420;2023-11-21T07:05:06;15.00;;;13.40;;
15708;SDS011;7954;51.914;8.420;2023-11-21T07:07:33;14.67;;;12.37;;
15708;SDS011;7954;51.914;8.420;2023-11-21T07:10:03;15.17;;;13.00;;
15708;SDS011;7954;51.914;8.420;2023-11-21T07:12:32;15.67;;;11.90;;
15708;SDS011;7954;51.914;8.420;2023-11-21T07:15:02;16.43;;;14.07;;
15708;SDS011;7954;51.914;8.420;2023-11-21T07:17:33;14.70;;;13.20;;
15708;SDS011;7954;51.914;8.420;2023-11-21T07:20:05;14.57;;;13.03;;
15708;SDS011;7954;51.914;8.420;2023-11-21T07:22:36;15.00;;;13.33;;
15708;SDS011;7954;51.914;8.420;2023-11-21T07:25:04;16.73;;;14.50;;
15708;SDS011;7954;51.914;8.420;2023-11-21T07:27:33;18.27;;;15.57;;
15708;SDS011;7954;51.914;8.420;2023-11-21T07:30:02;16.60;;;14.47;;
15708;SDS011;7954;51.914;8.420;2023-11-21T07:32:31;21.30;;;16.10;;
15708;SDS011;7954;51.914;8.420;2023-11-21T07:35:01;16.17;;;13.97;;
15708;SDS011;7954;51.914;8.420;2023-11-21T07:37:28;19.37;;;15.80;;
15708;SDS011;7954;51.914;8.420;2023-11-21T07:39:56;16.30;;;13.90;;
15708;SDS011;7954;51.914;8.420;2023-11-21T07:42:24;17.20;;;15.40;;
15708;SDS011;7954;51.914;8.420;2023-11-21T07:44:53;17.17;;;14.23;;
15708;SDS011;7954;51.914;8.420;2023-11-21T07:47:21;15.53;;;13.93;;
15708;SDS011;7954;51.914;8.420;2023-11-21T07:49:54;16.30;;;14.40;;
15708;SDS011;7954;51.914;8.420;2023-11-21T07:52:26;18.17;;;13.90;;
15708;SDS011;7954;51.914;8.420;2023-11-21T07:54:54;21.20;;;15.37;;
15708;SDS011;7954;51.914;8.420;2023-11-21T07:57:23;19.30;;;14.73;;
15708;SDS011;7954;51.914;8.420;2023-11-21T07:59:50;21.07;;;15.70;;
15708;SDS011;7954;51.914;8.420;2023-11-21T08:02:20;20.10;;;16.27;;
15708;SDS011;7954;51.914;8.420;2023-11-21T08:04:49;19.77;;;15.70;;
15708;SDS011;7954;51.914;8.420;2023-11-21T08:07:17;20.83;;;15.70;;
15708;SDS011;7954;51.914;8.420;2023-11-21T08:09:47;21.67;;;17.00;;
15708;SDS011;7954;51.914;8.420;2023-11-21T08:12:16;25.13;;;17.40;;
15708;SDS011;7954;51.914;8.420;2023-11-21T08:14:44;23.33;;;16.87;;
15708;SDS011;7954;51.914;8.420;2023-11-21T08:17:13;22.17;;;18.33;;
15708;SDS011;7954;51.914;8.420;2023-11-21T08:19:44;20.50;;;17.07;;
15708;SDS011;7954;51.914;8.420;2023-11-21T08:22:16;19.20;;;16.47;;
15708;SDS011;7954;51.914;8.420;2023-11-21T08:24:44;22.43;;;18.23;;
15708;SDS011;7954;51.914;8.420;2023-11-21T08:27:14;22.27;;;17.73;;
15708;SDS011;7954;51.914;8.420;2023-11-21T08:29:43;19.97;;;16.03;;
15708;SDS011;7954;51.914;8.420;2023-11-21T08:32:11;22.27;;;17.00;;
15708;SDS011;7954;51.914;8.420;2023-11-21T08:34:38;24.33;;;17.73;;
15708;SDS011;7954;51.914;8.420;2023-11-21T08:37:10;20.53;;;15.63;;
15708;SDS011;7954;51.914;8.420;2023-11-21T08:39:38;23.00;;;17.03;;
15708;SDS011;7954;51.914;8.420;2023-11-21T08:42:08;23.77;;;18.33;;
15708;SDS011;7954;51.914;8.420;2023-11-21T08:44:37;23.07;;;17.57;;
15708;SDS011;7954;51.914;8.420;2023-11-21T08:47:06;26.47;;;18.73;;
15708;SDS011;7954;51.914;8.420;2023-11-21T08:49:34;22.90;;;17.33;;
15708;SDS011;7954;51.914;8.420;2023-11-21T08:52:03;20.33;;;15.17;;
15708;SDS011;7954;51.914;8.420;2023-11-21T08:54:31;20.10;;;15.33;;
15708;SDS011;7954;51.914;8.420;2023-11-21T08:57:01;19.53;;;17.10;;
15708;SDS011;7954;51.914;8.420;2023-11-21T08:59:29;18.47;;;15.27;;
15708;SDS011;7954;51.914;8.420;2023-11-21T09:01:59;20.53;;;15.37;;
15708;SDS011;7954;51.914;8.420;2023-11-21T09:04:27;20.93;;;15.63;;
15708;SDS011;7954;51.914;8.420;2023-11-21T09:06:55;21.37;;;16.70;;
15708;SDS011;7954;51.914;8.420;2023-11-21T09:09:23;15.53;;;13.43;;
15708;SDS011;7954;51.914;8.420;2023-11-21T09:11:54;19.10;;;13.97;;
15708;SDS011;7954;51.914;8.420;2023-11-21T09:14:21;14.60;;;12.70;;
15708;SDS011;7954;51.914;8.420;2023-11-21T09:16:50;20.57;;;14.83;;
15708;SDS011;7954;51.914;8.420;2023-11-21T09:19:19;16.67;;;13.77;;
15708;SDS011;7954;51.914;8.420;2023-11-21T09:21:47;16.20;;;13.87;;
15708;SDS011;7954;51.914;8.420;2023-11-21T09:24:15;19.90;;;14.87;;
15708;SDS011;7954;51.914;8.420;2023-11-21T09:26:43;18.40;;;14.57;;
15708;SDS011;7954;51.914;8.420;2023-11-21T09:29:11;18.43;;;14.07;;
15708;SDS011;7954;51.914;8.420;2023-11-21T09:31:40;20.87;;;15.13;;
15708;SDS011;7954;51.914;8.420;2023-11-21T09:34:08;16.70;;;14.07;;
15708;SDS011;7954;51.914;8.420;2023-11-21T09:36:39;17.23;;;14.07;;
15708;SDS011;7954;51.914;8.420;2023-11-21T09:39:09;16.80;;;13.37;;
15708;SDS011;7954;51.914;8.420;2023-11-21T09:41:38;19.47;;;13.73;;
15708;SDS011;7954;51.914;8.420;2023-11-21T09:44:08;23.57;;;15.03;;
15708;SDS011;7954;51.914;8.420;2023-11-21T09:46:37;20.07;;;13.33;;
15708;SDS011;7954;51.914;8.420;2023-11-21T09:49:08;25.00;;;15.80;;
15708;SDS011;7954;51.914;8.420;2023-11-21T09:51:40;17.10;;;13.10;;
15708;SDS011;7954;51.914;8.420;2023-11-21T09:54:10;20.90;;;14.77;;
15708;SDS011;7954;51.914;8.420;2023-11-21T09:56:38;24.53;;;16.50;;
15708;SDS011;7954;51.914;8.420;2023-11-21T09:59:06;21.90;;;14.47;;
15708;SDS011;7954;51.914;8.420;2023-11-21T10:01:36;12.97;;;11.40;;
15708;SDS011;7954;51.914;8.420;2023-11-21T10:04:05;11.63;;;9.97;;
15708;SDS011;7954;51.914;8.420;2023-11-21T10:06:38;11.73;;;9.87;;
15708;SDS011;7954;51.914;8.420;2023-11-21T10:09:11;11.30;;;8.93;;
15708;SDS011;7954;51.914;8.420;2023-11-21T10:11:40;10.50;;;8.87;;
15708;SDS011;7954;51.914;8.420;2023-11-21T10:14:08;9.93;;;8.50;;
15708;SDS011;7954;51.914;8.420;2023-11-21T10:16:39;8.87;;;7.63;;
15708;SDS011;7954;51.914;8.420;2023-11-21T10:19:09;8.40;;;7.60;;
15708;SDS011;7954;51.914;8.420;2023-11-21T10:21:37;7.30;;;6.60;;
15708;SDS011;7954;51.914;8.420;2023-11-21T10:24:06;7.30;;;6.60;;
15708;SDS011;7954;51.914;8.420;2023-11-21T10:26:36;7.40;;;6.70;;
15708;SDS011;7954;51.914;8.420;2023-11-21T10:29:18;6.30;;;5.80;;
15708;SDS011;7954;51.914;8.420;2023-11-21T10:31:49;6.50;;;5.90;;
15708;SDS011;7954;51.914;8.420;2023-11-21T10:34:17;5.70;;;5.30;;
15708;SDS011;7954;51.914;8.420;2023-11-21T10:36:45;5.83;;;5.43;;
15708;SDS011;7954;51.914;8.420;2023-11-21T10:39:14;5.63;;;5.10;;
15708;SDS011;7954;51.914;8.420;2023-11-21T10:41:45;6.00;;;5.50;;
15708;SDS011;7954;51.914;8.420;2023-11-21T10:44:13;5.93;;;5.40;;
15708;SDS011;7954;51.914;8.420;2023-11-21T10:46:47;5.20;;;4.77;;
15708;SDS011;7954;51.914;8.420;2023-11-21T10:49:17;6.00;;;5.40;;
15708;SDS011;7954;51.914;8.420;2023-11-21T10:51:46;6.17;;;5.60;;
15708;SDS011;7954;51.914;8.420;2023-11-21T10:54:17;4.90;;;4.50;;
15708;SDS011;7954;51.914;8.420;2023-11-21T10:56:46;5.30;;;4.90;;
15708;SDS011;7954;51.914;8.420;2023-11-21T10:59:17;4.60;;;4.13;;
15708;SDS011;7954;51.914;8.420;2023-11-21T11:01:48;4.93;;;4.53;;
15708;SDS011;7954;51.914;8.420;2023-11-21T11:04:18;5.13;;;4.67;;
15708;SDS011;7954;51.914;8.420;2023-11-21T11:06:47;4.70;;;4.20;;
15708;SDS011;7954;51.914;8.420;2023-11-21T11:09:18;4.70;;;4.33;;
15708;SDS011;7954;51.914;8.420;2023-11-21T11:11:47;5.10;;;4.70;;
15708;SDS011;7954;51.914;8.420;2023-11-21T11:14:17;4.30;;;3.90;;
15708;SDS011;7954;51.914;8.420;2023-11-21T11:16:46;4.67;;;4.27;;
15708;SDS011;7954;51.914;8.420;2023-11-21T11:19:16;4.57;;;4.20;;
15708;SDS011;7954;51.914;8.420;2023-11-21T11:21:46;4.00;;;3.60;;
15708;SDS011;7954;51.914;8.420;2023-11-21T11:24:27;4.20;;;3.90;;
15708;SDS011;7954;51.914;8.420;2023-11-21T11:27:01;3.60;;;3.30;;
15708;SDS011;7954;51.914;8.420;2023-11-21T11:29:36;3.90;;;3.17;;
15708;SDS011;7954;51.914;8.420;2023-11-21T11:32:09;3.20;;;2.90;;
15708;SDS011;7954;51.914;8.420;2023-11-21T11:34:41;3.00;;;2.70;;
15708;SDS011;7954;51.914;8.420;2023-11-21T11:37:11;2.90;;;2.70;;
15708;SDS011;7954;51.914;8.420;2023-11-21T11:39:40;2.70;;;2.50;;
15708;SDS011;7954;51.914;8.420;2023-11-21T11:42:13;2.77;;;2.57;;
15708;SDS011;7954;51.914;8.420;2023-11-21T11:44:48;3.63;;;2.83;;
15708;SDS011;7954;51.914;8.420;2023-11-21T11:47:22;2.70;;;2.50;;
15708;SDS011;7954;51.914;8.420;2023-11-21T11:49:58;2.93;;;2.73;;
15708;SDS011;7954;51.914;8.420;2023-11-21T11:52:36;3.10;;;2.80;;
15708;SDS011;7954;51.914;8.420;2023-11-21T11:55:06;2.87;;;2.67;;
15708;SDS011;7954;51.914;8.420;2023-11-21T11:57:38;3.67;;;2.70;;
15708;SDS011;7954;51.914;8.420;2023-11-21T12:00:07;3.37;;;3.17;;
15708;SDS011;7954;51.914;8.420;2023-11-21T12:02:35;3.13;;;2.83;;
15708;SDS011;7954;51.914;8.420;2023-11-21T12:05:09;2.87;;;2.67;;
15708;SDS011;7954;51.914;8.420;2023-11-21T12:07:43;3.13;;;2.93;;
15708;SDS011;7954;51.914;8.420;2023-11-21T12:10:13;3.00;;;2.80;;
15708;SDS011;7954;51.914;8.420;2023-11-21T12:12:47;3.67;;;3.37;;
15708;SDS011;7954;51.914;8.420;2023-11-21T12:15:15;4.40;;;4.03;;
15708;SDS011;7954;51.914;8.420;2023-11-21T12:17:45;4.10;;;3.80;;
15708;SDS011;7954;51.914;8.420;2023-11-21T12:20:13;4.80;;;4.20;;
15708;SDS011;7954;51.914;8.420;2023-11-21T12:22:45;4.40;;;4.00;;
15708;SDS011;7954;51.914;8.420;2023-11-21T12:25:15;4.33;;;3.93;;
15708;SDS011;7954;51.914;8.420;2023-11-21T12:27:47;4.00;;;3.70;;
15708;SDS011;7954;51.914;8.420;2023-11-21T12:30:16;4.50;;;4.20;;
15708;SDS011;7954;51.914;8.420;2023-11-21T12:32:47;4.13;;;3.83;;
15708;SDS011;7954;51.914;8.420;2023-11-21T12:35:15;4.50;;;4.10;;
15708;SDS011;7954;51.914;8.420;2023-11-21T12:37:47;4.80;;;4.40;;
15708;SDS011;7954;51.914;8.420;2023-11-21T12:40:16;4.73;;;4.33;;
15708;SDS011;7954;51.914;8.420;2023-11-21T12:42:45;4.53;;;4.13;;
15708;SDS011;7954;51.914;8.420;2023-11-21T12:45:19;5.50;;;4.57;;
15708;SDS011;7954;51.914;8.420;2023-11-21T12:47:48;5.13;;;4.60;;
15708;SDS011;7954;51.914;8.420;2023-11-21T12:50:18;5.37;;;4.87;;
15708;SDS011;7954;51.914;8.420;2023-11-21T12:52:50;5.87;;;5.37;;
15708;SDS011;7954;51.914;8.420;2023-11-21T12:55:20;5.73;;;5.23;;
15708;SDS011;7954;51.914;8.420;2023-11-21T12:57:49;5.77;;;5.27;;
15708;SDS011;7954;51.914;8.420;2023-11-21T13:00:18;4.83;;;4.43;;
15708;SDS011;7954;51.914;8.420;2023-11-21T13:02:55;5.03;;;4.63;;
15708;SDS011;7954;51.914;8.420;2023-11-21T13:05:25;5.40;;;4.90;;
15708;SDS011;7954;51.914;8.420;2023-11-21T13:07:53;5.23;;;4.67;;
15708;SDS011;7954;51.914;8.420;2023-11-21T13:10:22;5.10;;;4.70;;
15708;SDS011;7954;51.914;8.420;2023-11-21T13:12:53;5.17;;;4.77;;
15708;SDS011;7954;51.914;8.420;2023-11-21T13:15:21;5.13;;;4.63;;
15708;SDS011;7954;51.914;8.420;2023-11-21T13:17:49;4.57;;;4.17;;
15708;SDS011;7954;51.914;8.420;2023-11-21T13:20:19;4.47;;;4.07;;
15708;SDS011;7954;51.914;8.420;2023-11-21T13:22:47;4.80;;;4.40;;
15708;SDS011;7954;51.914;8.420;2023-11-21T13:25:16;4.20;;;3.87;;
15708;SDS011;7954;51.914;8.420;2023-11-21T13:27:45;4.20;;;3.80;;
15708;SDS011;7954;51.914;8.420;2023-11-21T13:30:13;4.27;;;3.83;;
15708;SDS011;7954;51.914;8.420;2023-11-21T13:32:50;4.33;;;3.90;;
15708;SDS011;7954;51.914;8.420;2023-11-21T13:35:19;4.30;;;3.90;;
15708;SDS011;7954;51.914;8.420;2023-11-21T13:37:57;3.73;;;3.40;;
15708;SDS011;7954;51.914;8.420;2023-11-21T13:40:33;3.80;;;3.50;;
15708;SDS011;7954;51.914;8.420;2023-11-21T13:43:08;5.77;;;4.07;;
15708;SDS011;7954;51.914;8.420;2023-11-21T13:45:37;3.73;;;3.43;;
15708;SDS011;7954;51.914;8.420;2023-11-21T13:48:08;4.10;;;3.70;;
15708;SDS011;7954;51.914;8.420;2023-11-21T13:50:39;3.77;;;3.47;;
15708;SDS011;7954;51.914;8.420;2023-11-21T13:53:15;4.50;;;3.80;;
15708;SDS011;7954;51.914;8.420;2023-11-21T13:55:48;4.37;;;3.97;;
15708;SDS011;7954;51.914;8.420;2023-11-21T13:58:17;4.50;;;3.80;;
15708;SDS011;7954;51.914;8.420;2023-11-21T14:00:49;4.30;;;3.90;;
15708;SDS011;7954;51.914;8.420;2023-11-21T14:03:24;3.90;;;3.60;;
15708;SDS011;7954;51.914;8.420;2023-11-21T14:06:08;6.13;;;3.80;;
15708;SDS011;7954;51.914;8.420;2023-11-21T14:08:40;3.37;;;3.07;;
15708;SDS011;7954;51.914;8.420;2023-11-21T14:11:08;3.17;;;2.97;;
15708;SDS011;7954;51.914;8.420;2023-11-21T14:13:40;4.73;;;3.40;;
15708;SDS011;7954;51.914;8.420;2023-11-21T14:16:13;3.33;;;2.97;;
15708;SDS011;7954;51.914;8.420;2023-11-21T14:18:40;4.00;;;3.60;;
15708;SDS011;7954;51.914;8.420;2023-11-21T14:21:20;3.50;;;3.20;;
15708;SDS011;7954;51.914;8.420;2023-11-21T14:23:48;3.30;;;3.00;;
15708;SDS011;7954;51.914;8.420;2023-11-21T14:26:18;3.87;;;3.47;;
15708;SDS011;7954;51.914;8.420;2023-11-21T14:28:47;4.43;;;4.03;;
15708;SDS011;7954;51.914;8.420;2023-11-21T14:31:15;3.13;;;2.83;;
15708;SDS011;7954;51.914;8.420;2023-11-21T14:33:43;3.43;;;3.13;;
15708;SDS011;7954;51.914;8.420;2023-11-21T14:36:11;3.60;;;3.30;;
15708;SDS011;7954;51.914;8.420;2023-11-21T14:38:41;3.97;;;3.57;;
15708;SDS011;7954;51.914;8.420;2023-11-21T14:41:09;4.00;;;3.60;;
15708;SDS011;7954;51.914;8.420;2023-11-21T14:43:38;4.30;;;3.90;;
15708;SDS011;7954;51.914;8.420;2023-11-21T14:46:07;3.57;;;3.27;;
15708;SDS011;7954;51.914;8.420;2023-11-21T14:48:39;3.77;;;3.47;;
15708;SDS011;7954;51.914;8.420;2023-11-21T14:51:08;3.87;;;3.47;;
15708;SDS011;7954;51.914;8.420;2023-11-21T14:53:59;4.37;;;3.97;;
15708;SDS011;7954;51.914;8.420;2023-11-21T14:56:32;3.70;;;3.40;;
15708;SDS011;7954;51.914;8.420;2023-11-21T14:59:01;4.10;;;3.70;;
15708;SDS011;7954;51.914;8.420;2023-11-21T15:01:34;4.00;;;3.63;;
15708;SDS011;7954;51.914;8.420;2023-11-21T15:04:12;4.40;;;4.00;;
15708;SDS011;7954;51.914;8.420;2023-11-21T15:06:51;3.80;;;3.50;;